sensor_id;sensor_type;location;lat;lon;timestamp;P1;durP1;ratioP1;P2;durP2;ratioP2
17235;SDS011;8734;59.272;17.780;2023-03-01T00:01:35;2.13;;;0.73;;
17235;SDS011;8734;59.272;17.780;2023-03-01T00:04:04;15.50;;;1.10;;
17235;SDS011;8734;59.272;17.780;2023-03-01T00:06:32;5.40;;;1.00;;
17235;SDS011;8734;59.272;17.780;2023-03-01T00:09:00;3.17;;;1.37;;
17235;SDS011;8734;59.272;17.780;2023-03-01T00:11:29;3.63;;;1.10;;
17235;SDS011;8734;59.272;17.780;2023-03-01T00:13:59;9.03;;;1.40;;
17235;SDS011;8734;59.272;17.780;2023-03-01T00:16:34;3.63;;;1.00;;
17235;SDS011;8734;59.272;17.780;2023-03-01T00:19:05;4.37;;;0.87;;
17235;SDS011;8734;59.272;17.780;2023-03-01T00:21:34;13.53;;;1.13;;
17235;SDS011;8734;59.272;17.780;2023-03-01T00:24:03;2.03;;;0.90;;
17235;SDS011;8734;59.272;17.780;2023-03-01T00:26:31;7.20;;;1.17;;
17235;SDS011;8734;59.272;17.780;2023-03-01T00:29:00;4.17;;;1.00;;
17235;SDS011;8734;59.272;17.780;2023-03-01T00:31:29;5.53;;;0.87;;
17235;SDS011;8734;59.272;17.780;2023-03-01T00:34:01;5.97;;;0.87;;
17235;SDS011;8734;59.272;17.780;2023-03-01T00:36:32;3.83;;;1.00;;
17235;SDS011;8734;59.272;17.780;2023-03-01T00:39:01;4.00;;;0.70;;
17235;SDS011;8734;59.272;17.780;2023-03-01T00:41:31;7.30;;;1.27;;
17235;SDS011;8734;59.272;17.780;2023-03-01T00:44:02;8.93;;;1.20;;
17235;SDS011;8734;59.272;17.780;2023-03-01T00:46:30;4.90;;;1.20;;
17235;SDS011;8734;59.272;17.780;2023-03-01T00:49:02;3.83;;;1.00;;
17235;SDS011;8734;59.272;17.780;2023-03-01T00:51:31;2.20;;;0.97;;
17235;SDS011;8734;59.272;17.780;2023-03-01T00:54:00;5.93;;;1.00;;
17235;SDS011;8734;59.272;17.780;2023-03-01T00:56:29;7.13;;;1.10;;
17235;SDS011;8734;59.272;17.780;2023-03-01T00:58:59;3.83;;;1.40;;
17235;SDS011;8734;59.272;17.780;2023-03-01T01:01:28;7.47;;;0.80;;
17235;SDS011;8734;59.272;17.780;2023-03-01T01:03:58;3.73;;;1.20;;
17235;SDS011;8734;59.272;17.780;2023-03-01T01:06:30;8.03;;;1.00;;
17235;SDS011;8734;59.272;17.780;2023-03-01T01:09:00;2.63;;;1.00;;
17235;SDS011;8734;59.272;17.780;2023-03-01T01:11:28;1.97;;;0.90;;
17235;SDS011;8734;59.272;17.780;2023-03-01T01:13:57;4.13;;;0.80;;
17235;SDS011;8734;59.272;17.780;2023-03-01T01:16:27;7.47;;;1.07;;
17235;SDS011;8734;59.272;17.780;2023-03-01T01:18:56;8.83;;;1.00;;
17235;SDS011;8734;59.272;17.780;2023-03-01T01:21:25;4.47;;;1.07;;
17235;SDS011;8734;59.272;17.780;2023-03-01T01:23:56;11.23;;;1.23;;
17235;SDS011;8734;59.272;17.780;2023-03-01T01:26:26;3.60;;;0.83;;
17235;SDS011;8734;59.272;17.780;2023-03-01T01:28:57;3.13;;;0.80;;
17235;SDS011;8734;59.272;17.780;2023-03-01T01:31:25;1.80;;;0.90;;
17235;SDS011;8734;59.272;17.780;2023-03-01T01:33:55;4.23;;;1.03;;
17235;SDS011;8734;59.272;17.780;2023-03-01T01:36:23;3.20;;;1.30;;
17235;SDS011;8734;59.272;17.780;2023-03-01T01:38:52;5.77;;;1.33;;
17235;SDS011;8734;59.272;17.780;2023-03-01T01:41:22;7.00;;;1.43;;
17235;SDS011;8734;59.272;17.780;2023-03-01T01:46:40;5.10;;;1.10;;
17235;SDS011;8734;59.272;17.780;2023-03-01T01:49:15;3.93;;;1.10;;
17235;SDS011;8734;59.272;17.780;2023-03-01T01:51:51;4.47;;;0.90;;
17235;SDS011;8734;59.272;17.780;2023-03-01T01:54:27;3.20;;;1.10;;
17235;SDS011;8734;59.272;17.780;2023-03-01T01:57:01;4.73;;;1.10;;
17235;SDS011;8734;59.272;17.780;2023-03-01T01:59:33;3.13;;;0.90;;
17235;SDS011;8734;59.272;17.780;2023-03-01T02:02:03;8.37;;;1.00;;
17235;SDS011;8734;59.272;17.780;2023-03-01T02:04:31;5.10;;;1.20;;
17235;SDS011;8734;59.272;17.780;2023-03-01T02:07:01;6.97;;;1.33;;
17235;SDS011;8734;59.272;17.780;2023-03-01T02:09:34;3.03;;;0.97;;
17235;SDS011;8734;59.272;17.780;2023-03-01T02:12:05;3.13;;;1.23;;
17235;SDS011;8734;59.272;17.780;2023-03-01T02:14:33;7.30;;;0.80;;
17235;SDS011;8734;59.272;17.780;2023-03-01T02:17:02;3.03;;;0.80;;
17235;SDS011;8734;59.272;17.780;2023-03-01T02:19:38;1.27;;;0.87;;
17235;SDS011;8734;59.272;17.780;2023-03-01T02:22:18;3.33;;;1.00;;
17235;SDS011;8734;59.272;17.780;2023-03-01T02:24:53;9.67;;;1.53;;
17235;SDS011;8734;59.272;17.780;2023-03-01T02:27:32;2.93;;;0.90;;
17235;SDS011;8734;59.272;17.780;2023-03-01T02:30:09;13.53;;;1.20;;
17235;SDS011;8734;59.272;17.780;2023-03-01T02:32:39;5.50;;;1.00;;
17235;SDS011;8734;59.272;17.780;2023-03-01T02:35:08;7.83;;;1.23;;
17235;SDS011;8734;59.272;17.780;2023-03-01T02:37:39;6.50;;;1.40;;
17235;SDS011;8734;59.272;17.780;2023-03-01T02:40:12;8.23;;;1.37;;
17235;SDS011;8734;59.272;17.780;2023-03-01T02:42:46;2.90;;;1.07;;
17235;SDS011;8734;59.272;17.780;2023-03-01T02:45:20;1.80;;;1.10;;
17235;SDS011;8734;59.272;17.780;2023-03-01T02:47:49;5.33;;;1.00;;
17235;SDS011;8734;59.272;17.780;2023-03-01T02:50:26;3.83;;;1.00;;
17235;SDS011;8734;59.272;17.780;2023-03-01T02:53:13;2.83;;;1.03;;
17235;SDS011;8734;59.272;17.780;2023-03-01T02:55:50;4.77;;;1.30;;
17235;SDS011;8734;59.272;17.780;2023-03-01T02:58:18;2.20;;;1.10;;
17235;SDS011;8734;59.272;17.780;2023-03-01T03:00:48;7.30;;;1.23;;
17235;SDS011;8734;59.272;17.780;2023-03-01T03:03:17;3.37;;;0.97;;
17235;SDS011;8734;59.272;17.780;2023-03-01T03:05:48;4.20;;;0.80;;
17235;SDS011;8734;59.272;17.780;2023-03-01T03:08:16;4.00;;;1.43;;
17235;SDS011;8734;59.272;17.780;2023-03-01T03:10:51;1.87;;;0.57;;
17235;SDS011;8734;59.272;17.780;2023-03-01T03:13:19;2.43;;;1.00;;
17235;SDS011;8734;59.272;17.780;2023-03-01T03:15:49;5.33;;;1.17;;
17235;SDS011;8734;59.272;17.780;2023-03-01T03:18:18;1.23;;;0.77;;
17235;SDS011;8734;59.272;17.780;2023-03-01T03:20:47;0.53;;;0.53;;
17235;SDS011;8734;59.272;17.780;2023-03-01T03:23:19;4.90;;;0.83;;
17235;SDS011;8734;59.272;17.780;2023-03-01T03:25:48;3.37;;;0.63;;
17235;SDS011;8734;59.272;17.780;2023-03-01T03:28:17;5.60;;;0.83;;
17235;SDS011;8734;59.272;17.780;2023-03-01T03:30:46;2.83;;;0.70;;
17235;SDS011;8734;59.272;17.780;2023-03-01T03:33:15;5.27;;;0.87;;
17235;SDS011;8734;59.272;17.780;2023-03-01T03:35:45;0.70;;;0.70;;
17235;SDS011;8734;59.272;17.780;2023-03-01T03:38:16;2.40;;;0.70;;
17235;SDS011;8734;59.272;17.780;2023-03-01T03:40:49;6.17;;;0.70;;
17235;SDS011;8734;59.272;17.780;2023-03-01T03:43:19;2.10;;;1.00;;
17235;SDS011;8734;59.272;17.780;2023-03-01T03:45:49;2.67;;;0.53;;
17235;SDS011;8734;59.272;17.780;2023-03-01T03:48:19;4.50;;;0.90;;
17235;SDS011;8734;59.272;17.780;2023-03-01T03:50:49;2.33;;;0.80;;
17235;SDS011;8734;59.272;17.780;2023-03-01T03:53:19;4.17;;;0.83;;
17235;SDS011;8734;59.272;17.780;2023-03-01T03:55:49;3.13;;;1.03;;
17235;SDS011;8734;59.272;17.780;2023-03-01T03:58:18;2.53;;;0.97;;
17235;SDS011;8734;59.272;17.780;2023-03-01T04:00:49;4.10;;;0.80;;
17235;SDS011;8734;59.272;17.780;2023-03-01T04:03:19;3.23;;;0.87;;
17235;SDS011;8734;59.272;17.780;2023-03-01T04:05:48;3.43;;;0.67;;
17235;SDS011;8734;59.272;17.780;2023-03-01T04:08:17;6.93;;;0.77;;
17235;SDS011;8734;59.272;17.780;2023-03-01T04:10:48;1.47;;;0.87;;
17235;SDS011;8734;59.272;17.780;2023-03-01T04:13:20;3.60;;;1.10;;
17235;SDS011;8734;59.272;17.780;2023-03-01T04:15:49;3.30;;;1.03;;
17235;SDS011;8734;59.272;17.780;2023-03-01T04:18:18;2.60;;;0.70;;
17235;SDS011;8734;59.272;17.780;2023-03-01T04:20:50;2.90;;;0.93;;
17235;SDS011;8734;59.272;17.780;2023-03-01T04:23:21;6.77;;;0.80;;
17235;SDS011;8734;59.272;17.780;2023-03-01T04:25:51;1.47;;;0.70;;
17235;SDS011;8734;59.272;17.780;2023-03-01T04:28:22;5.77;;;1.20;;
17235;SDS011;8734;59.272;17.780;2023-03-01T04:30:52;2.03;;;0.90;;
17235;SDS011;8734;59.272;17.780;2023-03-01T04:33:22;2.33;;;0.67;;
17235;SDS011;8734;59.272;17.780;2023-03-01T04:35:52;9.97;;;0.97;;
17235;SDS011;8734;59.272;17.780;2023-03-01T04:38:20;2.73;;;0.70;;
17235;SDS011;8734;59.272;17.780;2023-03-01T04:40:49;3.57;;;1.03;;
17235;SDS011;8734;59.272;17.780;2023-03-01T04:43:17;1.43;;;0.70;;
17235;SDS011;8734;59.272;17.780;2023-03-01T04:45:46;0.53;;;0.47;;
17235;SDS011;8734;59.272;17.780;2023-03-01T04:48:14;0.53;;;0.53;;
17235;SDS011;8734;59.272;17.780;2023-03-01T04:50:44;3.30;;;0.90;;
17235;SDS011;8734;59.272;17.780;2023-03-01T04:53:12;3.97;;;0.80;;
17235;SDS011;8734;59.272;17.780;2023-03-01T04:55:41;6.63;;;0.90;;
17235;SDS011;8734;59.272;17.780;2023-03-01T04:58:09;1.63;;;0.90;;
17235;SDS011;8734;59.272;17.780;2023-03-01T05:00:38;4.10;;;0.90;;
17235;SDS011;8734;59.272;17.780;2023-03-01T05:03:06;2.87;;;0.60;;
17235;SDS011;8734;59.272;17.780;2023-03-01T05:05:36;3.97;;;0.70;;
17235;SDS011;8734;59.272;17.780;2023-03-01T05:08:07;3.93;;;0.70;;
17235;SDS011;8734;59.272;17.780;2023-03-01T05:10:44;2.30;;;0.60;;
17235;SDS011;8734;59.272;17.780;2023-03-01T05:13:13;5.13;;;0.97;;
17235;SDS011;8734;59.272;17.780;2023-03-01T05:15:47;2.27;;;0.80;;
17235;SDS011;8734;59.272;17.780;2023-03-01T05:18:16;2.60;;;0.63;;
17235;SDS011;8734;59.272;17.780;2023-03-01T05:20:44;0.90;;;0.43;;
17235;SDS011;8734;59.272;17.780;2023-03-01T05:23:15;4.33;;;0.57;;
17235;SDS011;8734;59.272;17.780;2023-03-01T05:25:43;1.00;;;0.63;;
17235;SDS011;8734;59.272;17.780;2023-03-01T05:28:11;1.83;;;0.80;;
17235;SDS011;8734;59.272;17.780;2023-03-01T05:30:40;2.33;;;0.57;;
17235;SDS011;8734;59.272;17.780;2023-03-01T05:33:09;3.67;;;1.00;;
17235;SDS011;8734;59.272;17.780;2023-03-01T05:35:40;2.70;;;0.77;;
17235;SDS011;8734;59.272;17.780;2023-03-01T05:38:09;1.20;;;0.77;;
17235;SDS011;8734;59.272;17.780;2023-03-01T05:40:41;3.90;;;0.90;;
17235;SDS011;8734;59.272;17.780;2023-03-01T05:43:10;1.93;;;0.70;;
17235;SDS011;8734;59.272;17.780;2023-03-01T05:45:39;3.07;;;0.93;;
17235;SDS011;8734;59.272;17.780;2023-03-01T05:48:09;4.67;;;0.80;;
17235;SDS011;8734;59.272;17.780;2023-03-01T05:50:39;1.50;;;0.80;;
17235;SDS011;8734;59.272;17.780;2023-03-01T05:53:09;5.23;;;1.17;;
17235;SDS011;8734;59.272;17.780;2023-03-01T05:55:41;6.43;;;0.80;;
17235;SDS011;8734;59.272;17.780;2023-03-01T05:58:14;4.47;;;1.00;;
17235;SDS011;8734;59.272;17.780;2023-03-01T06:00:44;2.37;;;0.70;;
17235;SDS011;8734;59.272;17.780;2023-03-01T06:03:13;0.73;;;0.60;;
17235;SDS011;8734;59.272;17.780;2023-03-01T06:05:43;1.27;;;0.60;;
17235;SDS011;8734;59.272;17.780;2023-03-01T06:08:12;3.10;;;0.93;;
17235;SDS011;8734;59.272;17.780;2023-03-01T06:10:41;5.57;;;0.67;;
17235;SDS011;8734;59.272;17.780;2023-03-01T06:13:10;2.20;;;0.60;;
17235;SDS011;8734;59.272;17.780;2023-03-01T06:15:38;1.03;;;0.60;;
17235;SDS011;8734;59.272;17.780;2023-03-01T06:18:06;4.93;;;0.40;;
17235;SDS011;8734;59.272;17.780;2023-03-01T06:20:35;8.03;;;0.87;;
17235;SDS011;8734;59.272;17.780;2023-03-01T06:23:04;0.63;;;0.60;;
17235;SDS011;8734;59.272;17.780;2023-03-01T06:25:34;5.07;;;0.70;;
17235;SDS011;8734;59.272;17.780;2023-03-01T06:28:05;1.63;;;0.70;;
17235;SDS011;8734;59.272;17.780;2023-03-01T06:30:33;3.53;;;0.50;;
17235;SDS011;8734;59.272;17.780;2023-03-01T06:33:01;4.40;;;0.80;;
17235;SDS011;8734;59.272;17.780;2023-03-01T06:35:31;5.10;;;0.60;;
17235;SDS011;8734;59.272;17.780;2023-03-01T06:38:00;0.77;;;0.77;;
17235;SDS011;8734;59.272;17.780;2023-03-01T06:40:29;3.70;;;0.77;;
17235;SDS011;8734;59.272;17.780;2023-03-01T06:42:59;1.87;;;0.60;;
17235;SDS011;8734;59.272;17.780;2023-03-01T06:45:28;1.23;;;0.50;;
17235;SDS011;8734;59.272;17.780;2023-03-01T06:48:03;4.50;;;0.60;;
17235;SDS011;8734;59.272;17.780;2023-03-01T06:50:33;2.00;;;0.80;;
17235;SDS011;8734;59.272;17.780;2023-03-01T06:53:02;0.93;;;0.70;;
17235;SDS011;8734;59.272;17.780;2023-03-01T06:55:31;8.97;;;0.87;;
17235;SDS011;8734;59.272;17.780;2023-03-01T06:57:59;2.53;;;0.60;;
17235;SDS011;8734;59.272;17.780;2023-03-01T07:00:31;3.80;;;0.67;;
17235;SDS011;8734;59.272;17.780;2023-03-01T07:03:00;3.63;;;0.63;;
17235;SDS011;8734;59.272;17.780;2023-03-01T07:05:29;4.37;;;0.90;;
17235;SDS011;8734;59.272;17.780;2023-03-01T07:07:58;5.77;;;0.67;;
17235;SDS011;8734;59.272;17.780;2023-03-01T07:10:26;6.20;;;0.60;;
17235;SDS011;8734;59.272;17.780;2023-03-01T07:12:55;2.13;;;0.80;;
17235;SDS011;8734;59.272;17.780;2023-03-01T07:15:24;2.73;;;0.60;;
17235;SDS011;8734;59.272;17.780;2023-03-01T07:17:54;0.93;;;0.37;;
17235;SDS011;8734;59.272;17.780;2023-03-01T07:20:24;0.57;;;0.57;;
17235;SDS011;8734;59.272;17.780;2023-03-01T07:22:53;2.50;;;0.60;;
17235;SDS011;8734;59.272;17.780;2023-03-01T07:25:22;4.57;;;0.63;;
17235;SDS011;8734;59.272;17.780;2023-03-01T07:27:52;0.53;;;0.43;;
17235;SDS011;8734;59.272;17.780;2023-03-01T07:30:20;2.27;;;0.80;;
17235;SDS011;8734;59.272;17.780;2023-03-01T07:32:52;2.37;;;0.80;;
17235;SDS011;8734;59.272;17.780;2023-03-01T07:35:22;5.77;;;0.90;;
17235;SDS011;8734;59.272;17.780;2023-03-01T07:37:52;6.73;;;1.40;;
17235;SDS011;8734;59.272;17.780;2023-03-01T07:40:20;6.83;;;1.53;;
17235;SDS011;8734;59.272;17.780;2023-03-01T07:42:49;5.93;;;1.83;;
17235;SDS011;8734;59.272;17.780;2023-03-01T07:45:22;6.17;;;1.40;;
17235;SDS011;8734;59.272;17.780;2023-03-01T07:47:51;7.13;;;1.27;;
17235;SDS011;8734;59.272;17.780;2023-03-01T07:50:21;4.53;;;1.70;;
17235;SDS011;8734;59.272;17.780;2023-03-01T07:52:50;7.97;;;1.50;;
17235;SDS011;8734;59.272;17.780;2023-03-01T07:55:18;4.90;;;1.50;;
17235;SDS011;8734;59.272;17.780;2023-03-01T07:57:46;3.90;;;1.10;;
17235;SDS011;8734;59.272;17.780;2023-03-01T08:00:15;1.67;;;1.20;;
17235;SDS011;8734;59.272;17.780;2023-03-01T08:02:43;2.03;;;0.80;;
17235;SDS011;8734;59.272;17.780;2023-03-01T08:05:11;5.97;;;0.80;;
17235;SDS011;8734;59.272;17.780;2023-03-01T08:07:41;1.20;;;0.83;;
17235;SDS011;8734;59.272;17.780;2023-03-01T08:10:10;5.53;;;0.80;;
17235;SDS011;8734;59.272;17.780;2023-03-01T08:12:38;4.53;;;0.60;;
17235;SDS011;8734;59.272;17.780;2023-03-01T08:15:07;0.83;;;0.50;;
17235;SDS011;8734;59.272;17.780;2023-03-01T08:17:36;6.97;;;0.60;;
17235;SDS011;8734;59.272;17.780;2023-03-01T08:20:05;3.77;;;0.53;;
17235;SDS011;8734;59.272;17.780;2023-03-01T08:22:34;1.60;;;0.60;;
17235;SDS011;8734;59.272;17.780;2023-03-01T08:25:04;0.60;;;0.40;;
17235;SDS011;8734;59.272;17.780;2023-03-01T08:27:32;0.43;;;0.43;;
17235;SDS011;8734;59.272;17.780;2023-03-01T08:30:01;3.00;;;0.60;;
17235;SDS011;8734;59.272;17.780;2023-03-01T08:32:32;0.40;;;0.40;;
17235;SDS011;8734;59.272;17.780;2023-03-01T08:35:04;1.93;;;0.60;;
17235;SDS011;8734;59.272;17.780;2023-03-01T08:37:32;1.37;;;0.73;;
17235;SDS011;8734;59.272;17.780;2023-03-01T08:40:01;2.50;;;0.70;;
17235;SDS011;8734;59.272;17.780;2023-03-01T08:42:32;2.70;;;1.27;;
17235;SDS011;8734;59.272;17.780;2023-03-01T08:45:00;4.03;;;0.63;;
17235;SDS011;8734;59.272;17.780;2023-03-01T08:47:28;1.60;;;0.90;;
17235;SDS011;8734;59.272;17.780;2023-03-01T08:49:57;4.20;;;0.63;;
17235;SDS011;8734;59.272;17.780;2023-03-01T08:52:25;0.67;;;0.40;;
17235;SDS011;8734;59.272;17.780;2023-03-01T08:54:54;1.83;;;0.70;;
17235;SDS011;8734;59.272;17.780;2023-03-01T08:57:22;1.80;;;0.43;;
17235;SDS011;8734;59.272;17.780;2023-03-01T08:59:52;1.03;;;0.60;;
17235;SDS011;8734;59.272;17.780;2023-03-01T09:02:22;1.60;;;0.47;;
17235;SDS011;8734;59.272;17.780;2023-03-01T09:04:51;1.33;;;0.53;;
17235;SDS011;8734;59.272;17.780;2023-03-01T09:07:19;0.37;;;0.37;;
17235;SDS011;8734;59.272;17.780;2023-03-01T09:09:47;1.90;;;0.70;;
17235;SDS011;8734;59.272;17.780;2023-03-01T09:12:20;0.83;;;0.63;;
17235;SDS011;8734;59.272;17.780;2023-03-01T09:14:48;1.93;;;0.70;;
17235;SDS011;8734;59.272;17.780;2023-03-01T09:17:18;0.40;;;0.40;;
17235;SDS011;8734;59.272;17.780;2023-03-01T09:19:48;2.23;;;0.70;;
17235;SDS011;8734;59.272;17.780;2023-03-01T09:22:16;2.50;;;0.60;;
17235;SDS011;8734;59.272;17.780;2023-03-01T09:24:44;2.63;;;1.17;;
17235;SDS011;8734;59.272;17.780;2023-03-01T09:27:13;1.03;;;0.40;;
17235;SDS011;8734;59.272;17.780;2023-03-01T09:29:45;3.63;;;0.53;;
17235;SDS011;8734;59.272;17.780;2023-03-01T09:32:13;0.53;;;0.40;;
17235;SDS011;8734;59.272;17.780;2023-03-01T09:34:43;1.20;;;0.80;;
17235;SDS011;8734;59.272;17.780;2023-03-01T09:37:31;0.70;;;0.57;;
17235;SDS011;8734;59.272;17.780;2023-03-01T09:40:00;0.93;;;0.57;;
17235;SDS011;8734;59.272;17.780;2023-03-01T09:42:29;0.93;;;0.70;;
17235;SDS011;8734;59.272;17.780;2023-03-01T09:45:02;4.03;;;0.57;;
17235;SDS011;8734;59.272;17.780;2023-03-01T09:47:34;1.60;;;0.53;;
17235;SDS011;8734;59.272;17.780;2023-03-01T09:50:06;1.93;;;0.60;;
17235;SDS011;8734;59.272;17.780;2023-03-01T09:52:40;2.00;;;0.50;;
17235;SDS011;8734;59.272;17.780;2023-03-01T09:55:11;2.77;;;0.63;;
17235;SDS011;8734;59.272;17.780;2023-03-01T09:57:43;1.53;;;0.60;;
17235;SDS011;8734;59.272;17.780;2023-03-01T10:00:18;0.40;;;0.40;;
17235;SDS011;8734;59.272;17.780;2023-03-01T10:02:56;1.20;;;0.50;;
17235;SDS011;8734;59.272;17.780;2023-03-01T10:05:36;1.80;;;0.60;;
17235;SDS011;8734;59.272;17.780;2023-03-01T10:11:03;2.00;;;0.50;;
17235;SDS011;8734;59.272;17.780;2023-03-01T10:13:34;0.90;;;0.50;;
17235;SDS011;8734;59.272;17.780;2023-03-01T10:16:12;0.97;;;0.40;;
17235;SDS011;8734;59.272;17.780;2023-03-01T10:18:43;0.87;;;0.53;;
17235;SDS011;8734;59.272;17.780;2023-03-01T10:21:21;1.50;;;0.70;;
17235;SDS011;8734;59.272;17.780;2023-03-01T10:23:50;1.00;;;0.77;;
17235;SDS011;8734;59.272;17.780;2023-03-01T10:29:25;2.13;;;0.87;;
17235;SDS011;8734;59.272;17.780;2023-03-01T10:31:58;1.03;;;0.60;;
17235;SDS011;8734;59.272;17.780;2023-03-01T10:34:27;4.90;;;0.70;;
17235;SDS011;8734;59.272;17.780;2023-03-01T10:37:00;1.80;;;0.67;;
17235;SDS011;8734;59.272;17.780;2023-03-01T10:39:37;0.87;;;0.57;;
17235;SDS011;8734;59.272;17.780;2023-03-01T10:42:22;2.20;;;0.77;;
17235;SDS011;8734;59.272;17.780;2023-03-01T10:44:57;0.87;;;0.50;;
17235;SDS011;8734;59.272;17.780;2023-03-01T10:47:37;1.17;;;0.60;;
17235;SDS011;8734;59.272;17.780;2023-03-01T10:50:23;0.50;;;0.50;;
17235;SDS011;8734;59.272;17.780;2023-03-01T10:53:02;0.67;;;0.50;;
17235;SDS011;8734;59.272;17.780;2023-03-01T10:55:33;1.20;;;0.63;;
17235;SDS011;8734;59.272;17.780;2023-03-01T10:58:07;1.03;;;0.70;;
17235;SDS011;8734;59.272;17.780;2023-03-01T11:00:47;0.90;;;0.50;;
17235;SDS011;8734;59.272;17.780;2023-03-01T11:03:18;0.93;;;0.50;;
17235;SDS011;8734;59.272;17.780;2023-03-01T11:05:50;1.17;;;0.70;;
17235;SDS011;8734;59.272;17.780;2023-03-01T11:08:38;0.83;;;0.80;;
17235;SDS011;8734;59.272;17.780;2023-03-01T11:11:18;2.47;;;0.80;;
17235;SDS011;8734;59.272;17.780;2023-03-01T11:13:51;1.40;;;0.70;;
17235;SDS011;8734;59.272;17.780;2023-03-01T11:16:34;1.77;;;0.80;;
17235;SDS011;8734;59.272;17.780;2023-03-01T11:19:13;3.73;;;0.70;;
17235;SDS011;8734;59.272;17.780;2023-03-01T11:21:47;1.53;;;0.90;;
17235;SDS011;8734;59.272;17.780;2023-03-01T11:24:25;4.73;;;0.80;;
17235;SDS011;8734;59.272;17.780;2023-03-01T11:26:57;1.23;;;0.50;;
17235;SDS011;8734;59.272;17.780;2023-03-01T11:29:30;2.30;;;0.80;;
17235;SDS011;8734;59.272;17.780;2023-03-01T11:32:14;2.40;;;0.80;;
17235;SDS011;8734;59.272;17.780;2023-03-01T11:34:43;2.70;;;1.03;;
17235;SDS011;8734;59.272;17.780;2023-03-01T11:37:21;0.50;;;0.50;;
17235;SDS011;8734;59.272;17.780;2023-03-01T11:40:01;1.60;;;0.83;;
17235;SDS011;8734;59.272;17.780;2023-03-01T11:42:39;0.67;;;0.60;;
17235;SDS011;8734;59.272;17.780;2023-03-01T11:45:24;0.53;;;0.50;;
17235;SDS011;8734;59.272;17.780;2023-03-01T11:48:02;0.83;;;0.60;;
17235;SDS011;8734;59.272;17.780;2023-03-01T11:50:45;5.10;;;0.63;;
17235;SDS011;8734;59.272;17.780;2023-03-01T11:53:20;0.60;;;0.60;;
17235;SDS011;8734;59.272;17.780;2023-03-01T11:56:01;5.50;;;0.60;;
17235;SDS011;8734;59.272;17.780;2023-03-01T11:58:39;13.17;;;0.87;;
17235;SDS011;8734;59.272;17.780;2023-03-01T12:01:27;4.60;;;0.67;;
17235;SDS011;8734;59.272;17.780;2023-03-01T12:07:18;1.40;;;0.60;;
17235;SDS011;8734;59.272;17.780;2023-03-01T12:09:56;1.20;;;0.60;;
17235;SDS011;8734;59.272;17.780;2023-03-01T12:12:46;1.13;;;0.60;;
17235;SDS011;8734;59.272;17.780;2023-03-01T12:15:32;4.57;;;0.60;;
17235;SDS011;8734;59.272;17.780;2023-03-01T12:18:41;0.60;;;0.60;;
17235;SDS011;8734;59.272;17.780;2023-03-01T12:21:21;7.07;;;0.70;;
17235;SDS011;8734;59.272;17.780;2023-03-01T12:27:00;0.50;;;0.50;;
17235;SDS011;8734;59.272;17.780;2023-03-01T12:29:40;4.13;;;0.70;;
17235;SDS011;8734;59.272;17.780;2023-03-01T12:32:15;2.73;;;0.60;;
17235;SDS011;8734;59.272;17.780;2023-03-01T12:35:11;6.33;;;0.93;;
17235;SDS011;8734;59.272;17.780;2023-03-01T12:37:52;1.03;;;0.50;;
17235;SDS011;8734;59.272;17.780;2023-03-01T12:40:33;0.70;;;0.57;;
17235;SDS011;8734;59.272;17.780;2023-03-01T12:43:16;3.10;;;0.50;;
17235;SDS011;8734;59.272;17.780;2023-03-01T12:46:00;1.43;;;0.97;;
17235;SDS011;8734;59.272;17.780;2023-03-01T12:48:39;1.03;;;0.50;;
17235;SDS011;8734;59.272;17.780;2023-03-01T12:51:15;4.00;;;0.93;;
17235;SDS011;8734;59.272;17.780;2023-03-01T12:53:47;0.43;;;0.40;;
17235;SDS011;8734;59.272;17.780;2023-03-01T12:56:18;2.07;;;0.73;;
17235;SDS011;8734;59.272;17.780;2023-03-01T12:58:51;1.90;;;0.70;;
17235;SDS011;8734;59.272;17.780;2023-03-01T13:01:30;0.43;;;0.40;;
17235;SDS011;8734;59.272;17.780;2023-03-01T13:04:16;0.60;;;0.50;;
17235;SDS011;8734;59.272;17.780;2023-03-01T13:06:54;2.63;;;0.53;;
17235;SDS011;8734;59.272;17.780;2023-03-01T13:09:34;0.50;;;0.50;;
17235;SDS011;8734;59.272;17.780;2023-03-01T13:17:57;1.47;;;0.60;;
17235;SDS011;8734;59.272;17.780;2023-03-01T13:20:30;3.07;;;0.60;;
17235;SDS011;8734;59.272;17.780;2023-03-01T13:23:02;0.67;;;0.50;;
17235;SDS011;8734;59.272;17.780;2023-03-01T13:25:33;2.23;;;0.73;;
17235;SDS011;8734;59.272;17.780;2023-03-01T13:37:27;0.43;;;0.40;;
17235;SDS011;8734;59.272;17.780;2023-03-01T13:39:57;0.67;;;0.50;;
17235;SDS011;8734;59.272;17.780;2023-03-01T13:42:38;1.73;;;0.70;;
17235;SDS011;8734;59.272;17.780;2023-03-01T13:45:32;0.70;;;0.43;;
17235;SDS011;8734;59.272;17.780;2023-03-01T13:48:08;3.30;;;0.67;;
17235;SDS011;8734;59.272;17.780;2023-03-01T13:50:43;1.17;;;0.57;;
17235;SDS011;8734;59.272;17.780;2023-03-01T13:53:16;15.37;;;0.60;;
17235;SDS011;8734;59.272;17.780;2023-03-01T13:55:47;0.93;;;0.50;;
17235;SDS011;8734;59.272;17.780;2023-03-01T13:58:21;0.60;;;0.47;;
17235;SDS011;8734;59.272;17.780;2023-03-01T14:00:55;1.83;;;0.60;;
17235;SDS011;8734;59.272;17.780;2023-03-01T14:03:25;0.50;;;0.50;;
17235;SDS011;8734;59.272;17.780;2023-03-01T14:06:02;0.57;;;0.43;;
17235;SDS011;8734;59.272;17.780;2023-03-01T14:08:42;0.93;;;0.60;;
17235;SDS011;8734;59.272;17.780;2023-03-01T14:14:20;0.70;;;0.47;;
17235;SDS011;8734;59.272;17.780;2023-03-01T14:17:21;1.00;;;0.50;;
17235;SDS011;8734;59.272;17.780;2023-03-01T14:19:58;2.43;;;0.60;;
17235;SDS011;8734;59.272;17.780;2023-03-01T14:22:29;1.90;;;0.63;;
17235;SDS011;8734;59.272;17.780;2023-03-01T14:25:02;0.97;;;0.50;;
17235;SDS011;8734;59.272;17.780;2023-03-01T14:27:33;0.80;;;0.60;;
17235;SDS011;8734;59.272;17.780;2023-03-01T14:30:10;0.90;;;0.60;;
17235;SDS011;8734;59.272;17.780;2023-03-01T14:32:42;0.50;;;0.50;;
17235;SDS011;8734;59.272;17.780;2023-03-01T14:35:19;6.17;;;0.80;;
17235;SDS011;8734;59.272;17.780;2023-03-01T14:37:50;1.43;;;0.70;;
17235;SDS011;8734;59.272;17.780;2023-03-01T14:40:23;1.37;;;0.70;;
17235;SDS011;8734;59.272;17.780;2023-03-01T14:42:52;3.17;;;0.80;;
17235;SDS011;8734;59.272;17.780;2023-03-01T14:45:22;0.83;;;0.70;;
17235;SDS011;8734;59.272;17.780;2023-03-01T14:47:53;8.37;;;1.00;;
17235;SDS011;8734;59.272;17.780;2023-03-01T14:50:24;2.33;;;0.70;;
17235;SDS011;8734;59.272;17.780;2023-03-01T14:52:56;2.73;;;0.60;;
17235;SDS011;8734;59.272;17.780;2023-03-01T14:55:29;1.90;;;0.77;;
17235;SDS011;8734;59.272;17.780;2023-03-01T14:58:03;1.00;;;0.57;;
17235;SDS011;8734;59.272;17.780;2023-03-01T15:00:33;6.87;;;0.80;;
17235;SDS011;8734;59.272;17.780;2023-03-01T15:03:06;7.90;;;1.00;;
17235;SDS011;8734;59.272;17.780;2023-03-01T15:05:40;3.20;;;0.70;;
17235;SDS011;8734;59.272;17.780;2023-03-01T15:08:16;2.27;;;0.70;;
17235;SDS011;8734;59.272;17.780;2023-03-01T15:10:55;1.70;;;0.70;;
17235;SDS011;8734;59.272;17.780;2023-03-01T15:13:28;4.00;;;0.80;;
17235;SDS011;8734;59.272;17.780;2023-03-01T15:16:02;12.30;;;1.17;;
17235;SDS011;8734;59.272;17.780;2023-03-01T15:18:37;4.10;;;1.10;;
17235;SDS011;8734;59.272;17.780;2023-03-01T15:21:15;3.63;;;1.00;;
17235;SDS011;8734;59.272;17.780;2023-03-01T15:23:49;3.90;;;1.00;;
17235;SDS011;8734;59.272;17.780;2023-03-01T15:26:26;2.47;;;0.97;;
17235;SDS011;8734;59.272;17.780;2023-03-01T15:29:00;2.40;;;0.80;;
17235;SDS011;8734;59.272;17.780;2023-03-01T15:31:29;0.60;;;0.60;;
17235;SDS011;8734;59.272;17.780;2023-03-01T15:34:08;2.50;;;0.80;;
17235;SDS011;8734;59.272;17.780;2023-03-01T15:36:40;1.73;;;0.70;;
17235;SDS011;8734;59.272;17.780;2023-03-01T15:39:30;3.60;;;0.60;;
17235;SDS011;8734;59.272;17.780;2023-03-01T15:42:06;7.27;;;0.90;;
17235;SDS011;8734;59.272;17.780;2023-03-01T15:44:38;11.67;;;0.90;;
17235;SDS011;8734;59.272;17.780;2023-03-01T15:47:25;0.77;;;0.57;;
17235;SDS011;8734;59.272;17.780;2023-03-01T15:49:56;0.50;;;0.50;;
17235;SDS011;8734;59.272;17.780;2023-03-01T15:52:28;2.60;;;0.60;;